Aérodrome :
LOGIN :

S'inscrire | Disclaimer

   EN    FR    IT 

 










Légende :    VFR   VFR Marginal   IFR   IFR Intensif   IFR Très Intensif
Visi : 
Plafond : 
>= 8 km
>= 3000ft
5 à 8 km
1000 à 3000 ft
1500m à 5 km
500 à 1000 ft
800 à 1500m
200 à 500 ft
< 800m
< 200 ft
Symboles :   Orages  Brouillard  Fortes neiges  Fortes précipitations  Vent > 20 kt
SIGMETs :   Divers  Orages  Givrage  Turbulence  Onde Orograph.  Cendres Volcan.






- Altitude de l'aérodrome : 90 ft
- Code IATA : NTE


LFRS - Nantes

DERNIER METAR :
  • 251230Z AUTO 27019G30KT 240V300 9999 -RA BKN032/// BKN047/// OVC060/// ///TCU 10/06 Q1011 TEMPO 27020G40KT 3000 SHRA

METARs EXPIRÉS :
  • 251200Z AUTO 27016KT 230V290 9999 BKN031/// BKN054/// ///CB 10/06 Q1011 TEMPO 27020G40KT 3000 SHRA
  • 251130Z AUTO 27017KT 8000 R03/1300D -RA FEW019/// BKN026/// BKN031/// ///CB 09/07 Q1012 TEMPO 27020G40KT 3000 SHRA
  • 251100Z AUTO 25012KT 220V280 9999 FEW019/// ///TCU 11/08 Q1012 TEMPO 27020G35KT 4500 -SHRA
  • 251030Z AUTO 26009KT 220V280 9999 FEW036/// BKN049/// ///TCU 10/07 Q1012 TEMPO 27020G35KT 4500 -SHRA
  • 251000Z AUTO 29017KT 250V320 9999 -RA FEW018/// BKN026/// BKN036/// ///TCU 10/06 Q1012 TEMPO 4500 -SHRA BECMG 26015G25KT

TAF TAF LFRS
Valide du 25 à 12h jusqu'au 26 à 18h UTC


251100Z 2512/2618 27015G25KT 9999 BKN025
TEMPO 2512/2609 3000 SHRA BKN020TCU
TEMPO 2512/2524 27020G40KT
ATIS : +33 2 40 05 12 74



MET'MAP, la Météo Aéronautique d'un coup d'oeil ! - Copyright ORBIFLY Décembre 2007 - Disclaimer

ORBIFLY MET'MAP TEAM :

Programmation & Développement : Alexandra Zaïnal
Sur une idée originale de : Baudouin d'Aumeries
Assistance à la programmation : Marc-Olivier Méhu
Soutien technique & logistique : Manuel Goepfert

Contact : metmap@orbifly.com




SOURCES & CREDITS :

   NOAA